sensor_id;sensor_type;location;lat;lon;timestamp;P1;durP1;ratioP1;P2;durP2;ratioP2
13588;SDS011;6865;52.552;13.434;2022-10-31T00:00:29;27.87;;;20.10;;
13588;SDS011;6865;52.552;13.434;2022-10-31T00:02:56;32.13;;;21.07;;
13588;SDS011;6865;52.552;13.434;2022-10-31T00:05:23;32.50;;;21.60;;
13588;SDS011;6865;52.552;13.434;2022-10-31T00:07:51;28.70;;;21.27;;
13588;SDS011;6865;52.552;13.434;2022-10-31T00:10:19;30.90;;;21.43;;
13588;SDS011;6865;52.552;13.434;2022-10-31T00:12:45;31.80;;;22.60;;
13588;SDS011;6865;52.552;13.434;2022-10-31T00:15:12;33.63;;;21.37;;
13588;SDS011;6865;52.552;13.434;2022-10-31T00:17:38;31.97;;;21.03;;
13588;SDS011;6865;52.552;13.434;2022-10-31T00:20:05;28.20;;;21.17;;
13588;SDS011;6865;52.552;13.434;2022-10-31T00:22:32;33.37;;;20.47;;
13588;SDS011;6865;52.552;13.434;2022-10-31T00:24:59;34.13;;;21.30;;
13588;SDS011;6865;52.552;13.434;2022-10-31T00:27:25;32.63;;;21.80;;
13588;SDS011;6865;52.552;13.434;2022-10-31T00:29:52;33.97;;;21.53;;
13588;SDS011;6865;52.552;13.434;2022-10-31T00:32:18;37.60;;;21.90;;
13588;SDS011;6865;52.552;13.434;2022-10-31T00:34:45;31.37;;;22.97;;
13588;SDS011;6865;52.552;13.434;2022-10-31T00:37:11;35.90;;;22.70;;
13588;SDS011;6865;52.552;13.434;2022-10-31T00:39:38;33.77;;;22.53;;
13588;SDS011;6865;52.552;13.434;2022-10-31T00:42:05;32.47;;;21.83;;
13588;SDS011;6865;52.552;13.434;2022-10-31T00:44:31;29.80;;;21.73;;
13588;SDS011;6865;52.552;13.434;2022-10-31T00:46:58;31.70;;;22.80;;
13588;SDS011;6865;52.552;13.434;2022-10-31T00:49:24;36.80;;;23.60;;
13588;SDS011;6865;52.552;13.434;2022-10-31T00:51:51;33.40;;;22.77;;
13588;SDS011;6865;52.552;13.434;2022-10-31T00:54:17;32.07;;;22.73;;
13588;SDS011;6865;52.552;13.434;2022-10-31T00:56:44;37.43;;;24.13;;
13588;SDS011;6865;52.552;13.434;2022-10-31T00:59:11;40.03;;;27.23;;
13588;SDS011;6865;52.552;13.434;2022-10-31T01:01:37;36.93;;;24.47;;
13588;SDS011;6865;52.552;13.434;2022-10-31T01:04:04;33.27;;;22.83;;
13588;SDS011;6865;52.552;13.434;2022-10-31T01:06:30;36.83;;;24.90;;
13588;SDS011;6865;52.552;13.434;2022-10-31T01:08:57;27.47;;;20.57;;
13588;SDS011;6865;52.552;13.434;2022-10-31T01:11:24;29.13;;;21.47;;
13588;SDS011;6865;52.552;13.434;2022-10-31T01:13:51;32.73;;;21.60;;
13588;SDS011;6865;52.552;13.434;2022-10-31T01:16:20;30.63;;;21.70;;
13588;SDS011;6865;52.552;13.434;2022-10-31T01:18:49;34.03;;;21.90;;
13588;SDS011;6865;52.552;13.434;2022-10-31T01:21:17;27.50;;;20.03;;
13588;SDS011;6865;52.552;13.434;2022-10-31T01:23:49;27.27;;;20.10;;
13588;SDS011;6865;52.552;13.434;2022-10-31T01:26:20;30.17;;;20.70;;
13588;SDS011;6865;52.552;13.434;2022-10-31T01:28:49;29.07;;;20.33;;
13588;SDS011;6865;52.552;13.434;2022-10-31T01:31:18;29.97;;;20.10;;
13588;SDS011;6865;52.552;13.434;2022-10-31T01:33:46;32.73;;;20.57;;
13588;SDS011;6865;52.552;13.434;2022-10-31T01:36:18;30.47;;;20.27;;
13588;SDS011;6865;52.552;13.434;2022-10-31T01:38:46;27.10;;;20.37;;
13588;SDS011;6865;52.552;13.434;2022-10-31T01:41:16;29.73;;;19.87;;
13588;SDS011;6865;52.552;13.434;2022-10-31T01:43:46;30.97;;;19.13;;
13588;SDS011;6865;52.552;13.434;2022-10-31T01:46:13;28.83;;;18.40;;
13588;SDS011;6865;52.552;13.434;2022-10-31T01:48:41;30.90;;;18.50;;
13588;SDS011;6865;52.552;13.434;2022-10-31T01:51:09;28.57;;;18.93;;
13588;SDS011;6865;52.552;13.434;2022-10-31T01:53:38;29.07;;;19.67;;
13588;SDS011;6865;52.552;13.434;2022-10-31T01:56:06;28.20;;;17.90;;
13588;SDS011;6865;52.552;13.434;2022-10-31T01:58:33;25.77;;;17.00;;
13588;SDS011;6865;52.552;13.434;2022-10-31T02:01:00;25.00;;;16.93;;
13588;SDS011;6865;52.552;13.434;2022-10-31T02:03:33;24.20;;;17.03;;
13588;SDS011;6865;52.552;13.434;2022-10-31T02:06:00;30.73;;;18.43;;
13588;SDS011;6865;52.552;13.434;2022-10-31T02:08:29;22.80;;;17.40;;
13588;SDS011;6865;52.552;13.434;2022-10-31T02:10:59;25.93;;;17.67;;
13588;SDS011;6865;52.552;13.434;2022-10-31T02:13:27;27.23;;;17.47;;
13588;SDS011;6865;52.552;13.434;2022-10-31T02:15:56;24.30;;;18.47;;
13588;SDS011;6865;52.552;13.434;2022-10-31T02:18:24;27.40;;;18.10;;
13588;SDS011;6865;52.552;13.434;2022-10-31T02:21:11;25.63;;;17.97;;
13588;SDS011;6865;52.552;13.434;2022-10-31T02:23:59;25.23;;;16.97;;
13588;SDS011;6865;52.552;13.434;2022-10-31T02:29:44;27.83;;;18.77;;
13588;SDS011;6865;52.552;13.434;2022-10-31T02:35:41;27.20;;;17.00;;
13588;SDS011;6865;52.552;13.434;2022-10-31T02:38:39;32.33;;;16.23;;
13588;SDS011;6865;52.552;13.434;2022-10-31T02:41:44;24.67;;;15.90;;
13588;SDS011;6865;52.552;13.434;2022-10-31T02:44:16;19.23;;;15.37;;
13588;SDS011;6865;52.552;13.434;2022-10-31T02:47:23;22.77;;;16.23;;
13588;SDS011;6865;52.552;13.434;2022-10-31T02:50:06;27.87;;;16.63;;
13588;SDS011;6865;52.552;13.434;2022-10-31T02:52:38;23.77;;;17.00;;
13588;SDS011;6865;52.552;13.434;2022-10-31T02:57:50;25.77;;;16.93;;
13588;SDS011;6865;52.552;13.434;2022-10-31T03:00:25;23.57;;;16.50;;
13588;SDS011;6865;52.552;13.434;2022-10-31T03:03:00;23.00;;;16.40;;
13588;SDS011;6865;52.552;13.434;2022-10-31T03:08:35;25.73;;;16.17;;
13588;SDS011;6865;52.552;13.434;2022-10-31T03:11:07;25.10;;;15.73;;
13588;SDS011;6865;52.552;13.434;2022-10-31T03:13:39;27.93;;;16.37;;
13588;SDS011;6865;52.552;13.434;2022-10-31T03:16:14;26.67;;;16.07;;
13588;SDS011;6865;52.552;13.434;2022-10-31T03:19:01;21.97;;;15.17;;
13588;SDS011;6865;52.552;13.434;2022-10-31T03:21:45;25.13;;;16.40;;
13588;SDS011;6865;52.552;13.434;2022-10-31T03:24:14;27.13;;;16.40;;
13588;SDS011;6865;52.552;13.434;2022-10-31T03:26:42;23.93;;;15.90;;
13588;SDS011;6865;52.552;13.434;2022-10-31T03:29:13;24.03;;;16.33;;
13588;SDS011;6865;52.552;13.434;2022-10-31T03:31:47;24.23;;;14.93;;
13588;SDS011;6865;52.552;13.434;2022-10-31T03:34:18;20.93;;;15.33;;
13588;SDS011;6865;52.552;13.434;2022-10-31T03:36:47;22.30;;;14.57;;
13588;SDS011;6865;52.552;13.434;2022-10-31T03:39:18;22.30;;;14.53;;
13588;SDS011;6865;52.552;13.434;2022-10-31T03:41:58;23.10;;;15.70;;
13588;SDS011;6865;52.552;13.434;2022-10-31T03:44:30;21.60;;;15.80;;
13588;SDS011;6865;52.552;13.434;2022-10-31T03:46:59;22.03;;;15.30;;
13588;SDS011;6865;52.552;13.434;2022-10-31T03:49:26;24.67;;;14.60;;
13588;SDS011;6865;52.552;13.434;2022-10-31T03:54:34;25.13;;;15.40;;
13588;SDS011;6865;52.552;13.434;2022-10-31T03:59:55;23.80;;;13.87;;
13588;SDS011;6865;52.552;13.434;2022-10-31T04:02:38;20.30;;;13.50;;
13588;SDS011;6865;52.552;13.434;2022-10-31T04:05:11;20.17;;;13.87;;
13588;SDS011;6865;52.552;13.434;2022-10-31T04:07:41;23.20;;;14.13;;
13588;SDS011;6865;52.552;13.434;2022-10-31T04:10:13;18.80;;;14.63;;
13588;SDS011;6865;52.552;13.434;2022-10-31T04:12:42;21.80;;;12.93;;
13588;SDS011;6865;52.552;13.434;2022-10-31T04:15:14;27.87;;;13.73;;
13588;SDS011;6865;52.552;13.434;2022-10-31T04:17:41;20.73;;;13.87;;
13588;SDS011;6865;52.552;13.434;2022-10-31T04:20:11;22.33;;;13.17;;
13588;SDS011;6865;52.552;13.434;2022-10-31T04:22:42;21.20;;;13.40;;
13588;SDS011;6865;52.552;13.434;2022-10-31T04:25:09;20.20;;;13.17;;
13588;SDS011;6865;52.552;13.434;2022-10-31T04:27:36;22.83;;;13.23;;
13588;SDS011;6865;52.552;13.434;2022-10-31T04:30:02;22.93;;;13.77;;
13588;SDS011;6865;52.552;13.434;2022-10-31T04:32:29;19.37;;;12.93;;
13588;SDS011;6865;52.552;13.434;2022-10-31T04:34:56;19.23;;;12.70;;
13588;SDS011;6865;52.552;13.434;2022-10-31T04:37:22;21.83;;;13.50;;
13588;SDS011;6865;52.552;13.434;2022-10-31T04:39:49;21.57;;;13.87;;
13588;SDS011;6865;52.552;13.434;2022-10-31T04:42:16;18.97;;;12.23;;
13588;SDS011;6865;52.552;13.434;2022-10-31T04:44:42;20.80;;;13.17;;
13588;SDS011;6865;52.552;13.434;2022-10-31T04:47:09;20.33;;;13.30;;
13588;SDS011;6865;52.552;13.434;2022-10-31T04:49:35;25.47;;;13.80;;
13588;SDS011;6865;52.552;13.434;2022-10-31T04:52:02;25.77;;;13.80;;
13588;SDS011;6865;52.552;13.434;2022-10-31T04:54:28;21.93;;;13.77;;
13588;SDS011;6865;52.552;13.434;2022-10-31T04:56:55;20.20;;;12.83;;
13588;SDS011;6865;52.552;13.434;2022-10-31T04:59:22;20.50;;;13.43;;
13588;SDS011;6865;52.552;13.434;2022-10-31T05:01:49;26.90;;;14.00;;
13588;SDS011;6865;52.552;13.434;2022-10-31T05:04:16;26.13;;;13.73;;
13588;SDS011;6865;52.552;13.434;2022-10-31T05:06:42;26.00;;;13.50;;
13588;SDS011;6865;52.552;13.434;2022-10-31T05:09:09;23.30;;;13.80;;
13588;SDS011;6865;52.552;13.434;2022-10-31T05:11:35;21.07;;;13.63;;
13588;SDS011;6865;52.552;13.434;2022-10-31T05:14:02;19.43;;;13.53;;
13588;SDS011;6865;52.552;13.434;2022-10-31T05:16:28;22.30;;;13.50;;
13588;SDS011;6865;52.552;13.434;2022-10-31T05:18:55;18.73;;;13.83;;
13588;SDS011;6865;52.552;13.434;2022-10-31T05:21:22;20.73;;;13.17;;
13588;SDS011;6865;52.552;13.434;2022-10-31T05:23:48;21.80;;;13.47;;
13588;SDS011;6865;52.552;13.434;2022-10-31T05:26:15;20.67;;;13.67;;
13588;SDS011;6865;52.552;13.434;2022-10-31T05:28:42;21.90;;;13.50;;
13588;SDS011;6865;52.552;13.434;2022-10-31T05:31:08;22.77;;;13.90;;
13588;SDS011;6865;52.552;13.434;2022-10-31T05:33:35;20.67;;;13.63;;
13588;SDS011;6865;52.552;13.434;2022-10-31T05:36:01;22.20;;;13.50;;
13588;SDS011;6865;52.552;13.434;2022-10-31T05:38:28;22.67;;;13.23;;
13588;SDS011;6865;52.552;13.434;2022-10-31T05:40:55;24.37;;;14.07;;
13588;SDS011;6865;52.552;13.434;2022-10-31T05:43:27;20.03;;;13.30;;
13588;SDS011;6865;52.552;13.434;2022-10-31T05:45:54;18.27;;;12.37;;
13588;SDS011;6865;52.552;13.434;2022-10-31T05:48:22;19.20;;;14.13;;
13588;SDS011;6865;52.552;13.434;2022-10-31T05:50:49;22.03;;;14.73;;
13588;SDS011;6865;52.552;13.434;2022-10-31T05:53:15;20.93;;;13.80;;
13588;SDS011;6865;52.552;13.434;2022-10-31T05:55:42;18.93;;;13.37;;
13588;SDS011;6865;52.552;13.434;2022-10-31T05:58:10;23.43;;;14.77;;
13588;SDS011;6865;52.552;13.434;2022-10-31T06:00:37;24.47;;;14.57;;
13588;SDS011;6865;52.552;13.434;2022-10-31T06:03:04;20.57;;;14.70;;
13588;SDS011;6865;52.552;13.434;2022-10-31T06:05:37;21.30;;;14.47;;
13588;SDS011;6865;52.552;13.434;2022-10-31T06:08:04;23.60;;;14.53;;
13588;SDS011;6865;52.552;13.434;2022-10-31T06:10:31;26.97;;;15.27;;
13588;SDS011;6865;52.552;13.434;2022-10-31T06:12:57;22.03;;;14.37;;
13588;SDS011;6865;52.552;13.434;2022-10-31T06:15:24;20.13;;;14.73;;
13588;SDS011;6865;52.552;13.434;2022-10-31T06:18:01;22.37;;;14.23;;
13588;SDS011;6865;52.552;13.434;2022-10-31T06:20:32;26.83;;;14.43;;
13588;SDS011;6865;52.552;13.434;2022-10-31T06:22:59;19.30;;;14.40;;
13588;SDS011;6865;52.552;13.434;2022-10-31T06:25:27;23.43;;;14.60;;
13588;SDS011;6865;52.552;13.434;2022-10-31T06:27:54;29.33;;;14.60;;
13588;SDS011;6865;52.552;13.434;2022-10-31T06:30:21;25.63;;;15.07;;
13588;SDS011;6865;52.552;13.434;2022-10-31T06:32:48;27.37;;;14.63;;
13588;SDS011;6865;52.552;13.434;2022-10-31T06:35:15;23.77;;;14.03;;
13588;SDS011;6865;52.552;13.434;2022-10-31T06:37:42;25.83;;;14.77;;
13588;SDS011;6865;52.552;13.434;2022-10-31T06:40:14;25.93;;;14.43;;
13588;SDS011;6865;52.552;13.434;2022-10-31T06:42:41;24.00;;;14.60;;
13588;SDS011;6865;52.552;13.434;2022-10-31T06:45:07;22.10;;;14.57;;
13588;SDS011;6865;52.552;13.434;2022-10-31T06:47:34;23.80;;;14.70;;
13588;SDS011;6865;52.552;13.434;2022-10-31T06:50:21;23.57;;;13.70;;
13588;SDS011;6865;52.552;13.434;2022-10-31T06:52:55;26.23;;;15.13;;
13588;SDS011;6865;52.552;13.434;2022-10-31T06:55:23;21.13;;;14.30;;
13588;SDS011;6865;52.552;13.434;2022-10-31T06:57:51;22.93;;;13.90;;
13588;SDS011;6865;52.552;13.434;2022-10-31T07:00:28;21.10;;;13.90;;
13588;SDS011;6865;52.552;13.434;2022-10-31T07:02:56;27.23;;;14.83;;
13588;SDS011;6865;52.552;13.434;2022-10-31T07:05:24;20.93;;;14.73;;
13588;SDS011;6865;52.552;13.434;2022-10-31T07:07:54;23.80;;;14.40;;
13588;SDS011;6865;52.552;13.434;2022-10-31T07:10:22;32.37;;;14.57;;
13588;SDS011;6865;52.552;13.434;2022-10-31T07:12:53;19.30;;;14.07;;
13588;SDS011;6865;52.552;13.434;2022-10-31T07:15:21;18.97;;;12.23;;
13588;SDS011;6865;52.552;13.434;2022-10-31T07:17:48;25.73;;;14.33;;
13588;SDS011;6865;52.552;13.434;2022-10-31T07:20:14;28.20;;;14.97;;
13588;SDS011;6865;52.552;13.434;2022-10-31T07:22:41;24.30;;;14.23;;
13588;SDS011;6865;52.552;13.434;2022-10-31T07:25:13;25.77;;;14.53;;
13588;SDS011;6865;52.552;13.434;2022-10-31T07:27:40;26.30;;;13.67;;
13588;SDS011;6865;52.552;13.434;2022-10-31T07:30:09;26.57;;;13.60;;
13588;SDS011;6865;52.552;13.434;2022-10-31T07:32:40;23.03;;;13.57;;
13588;SDS011;6865;52.552;13.434;2022-10-31T07:35:08;23.23;;;13.70;;
13588;SDS011;6865;52.552;13.434;2022-10-31T07:37:37;22.33;;;13.87;;
13588;SDS011;6865;52.552;13.434;2022-10-31T07:40:04;22.93;;;14.67;;
13588;SDS011;6865;52.552;13.434;2022-10-31T07:42:39;22.57;;;14.10;;
13588;SDS011;6865;52.552;13.434;2022-10-31T07:45:07;26.17;;;14.10;;
13588;SDS011;6865;52.552;13.434;2022-10-31T07:47:42;24.97;;;14.37;;
13588;SDS011;6865;52.552;13.434;2022-10-31T07:50:14;21.93;;;14.10;;
13588;SDS011;6865;52.552;13.434;2022-10-31T07:52:43;21.70;;;13.60;;
13588;SDS011;6865;52.552;13.434;2022-10-31T07:55:10;24.07;;;15.13;;
13588;SDS011;6865;52.552;13.434;2022-10-31T07:57:36;23.40;;;14.17;;
13588;SDS011;6865;52.552;13.434;2022-10-31T08:00:07;24.23;;;13.87;;
13588;SDS011;6865;52.552;13.434;2022-10-31T08:02:35;25.47;;;14.87;;
13588;SDS011;6865;52.552;13.434;2022-10-31T08:05:02;20.77;;;14.33;;
13588;SDS011;6865;52.552;13.434;2022-10-31T08:07:28;27.60;;;14.50;;
13588;SDS011;6865;52.552;13.434;2022-10-31T08:09:56;23.13;;;15.07;;
13588;SDS011;6865;52.552;13.434;2022-10-31T08:12:22;22.43;;;14.43;;
13588;SDS011;6865;52.552;13.434;2022-10-31T08:14:49;23.10;;;15.70;;
13588;SDS011;6865;52.552;13.434;2022-10-31T08:17:16;24.80;;;13.90;;
13588;SDS011;6865;52.552;13.434;2022-10-31T08:19:42;24.43;;;15.63;;
13588;SDS011;6865;52.552;13.434;2022-10-31T08:22:09;25.87;;;15.43;;
13588;SDS011;6865;52.552;13.434;2022-10-31T08:24:35;22.73;;;15.63;;
13588;SDS011;6865;52.552;13.434;2022-10-31T08:27:02;21.20;;;14.70;;
13588;SDS011;6865;52.552;13.434;2022-10-31T08:29:29;22.93;;;16.07;;
13588;SDS011;6865;52.552;13.434;2022-10-31T08:31:57;23.23;;;14.43;;
13588;SDS011;6865;52.552;13.434;2022-10-31T08:34:24;26.67;;;15.47;;
13588;SDS011;6865;52.552;13.434;2022-10-31T08:36:51;28.53;;;16.70;;
13588;SDS011;6865;52.552;13.434;2022-10-31T08:39:18;30.97;;;16.97;;
13588;SDS011;6865;52.552;13.434;2022-10-31T08:41:44;28.67;;;17.30;;
13588;SDS011;6865;52.552;13.434;2022-10-31T08:44:11;28.90;;;17.37;;
13588;SDS011;6865;52.552;13.434;2022-10-31T08:46:37;28.50;;;17.00;;
13588;SDS011;6865;52.552;13.434;2022-10-31T08:49:04;27.67;;;17.23;;
13588;SDS011;6865;52.552;13.434;2022-10-31T08:51:31;29.43;;;17.60;;
13588;SDS011;6865;52.552;13.434;2022-10-31T08:53:57;24.60;;;17.50;;
13588;SDS011;6865;52.552;13.434;2022-10-31T08:56:24;31.47;;;18.03;;
13588;SDS011;6865;52.552;13.434;2022-10-31T08:58:52;25.10;;;16.27;;
13588;SDS011;6865;52.552;13.434;2022-10-31T09:01:19;28.07;;;17.67;;
13588;SDS011;6865;52.552;13.434;2022-10-31T09:03:46;27.73;;;17.73;;
13588;SDS011;6865;52.552;13.434;2022-10-31T09:06:12;26.17;;;16.70;;
13588;SDS011;6865;52.552;13.434;2022-10-31T09:08:39;27.47;;;17.23;;
13588;SDS011;6865;52.552;13.434;2022-10-31T09:11:05;28.97;;;18.13;;
13588;SDS011;6865;52.552;13.434;2022-10-31T09:13:32;29.87;;;19.37;;
13588;SDS011;6865;52.552;13.434;2022-10-31T09:16:06;29.23;;;18.20;;
13588;SDS011;6865;52.552;13.434;2022-10-31T09:18:33;29.53;;;18.57;;
13588;SDS011;6865;52.552;13.434;2022-10-31T09:20:59;29.43;;;18.00;;
13588;SDS011;6865;52.552;13.434;2022-10-31T09:23:26;30.40;;;18.43;;
13588;SDS011;6865;52.552;13.434;2022-10-31T09:25:54;34.73;;;19.63;;
13588;SDS011;6865;52.552;13.434;2022-10-31T09:28:22;29.40;;;19.33;;
13588;SDS011;6865;52.552;13.434;2022-10-31T09:30:50;35.37;;;19.07;;
13588;SDS011;6865;52.552;13.434;2022-10-31T09:33:18;26.83;;;18.73;;
13588;SDS011;6865;52.552;13.434;2022-10-31T09:35:45;27.93;;;19.87;;
13588;SDS011;6865;52.552;13.434;2022-10-31T09:38:21;34.03;;;20.17;;
13588;SDS011;6865;52.552;13.434;2022-10-31T09:40:52;28.50;;;18.73;;
13588;SDS011;6865;52.552;13.434;2022-10-31T09:43:43;30.67;;;19.57;;
13588;SDS011;6865;52.552;13.434;2022-10-31T09:46:43;26.30;;;18.70;;
13588;SDS011;6865;52.552;13.434;2022-10-31T09:52:38;29.27;;;19.80;;
13588;SDS011;6865;52.552;13.434;2022-10-31T09:55:14;32.93;;;20.07;;
13588;SDS011;6865;52.552;13.434;2022-10-31T09:57:49;31.60;;;20.60;;
13588;SDS011;6865;52.552;13.434;2022-10-31T10:00:17;35.60;;;22.07;;
13588;SDS011;6865;52.552;13.434;2022-10-31T10:02:53;33.03;;;22.27;;
13588;SDS011;6865;52.552;13.434;2022-10-31T10:05:28;36.37;;;21.00;;
13588;SDS011;6865;52.552;13.434;2022-10-31T10:08:10;30.87;;;20.77;;
13588;SDS011;6865;52.552;13.434;2022-10-31T10:11:00;31.33;;;20.80;;
13588;SDS011;6865;52.552;13.434;2022-10-31T10:16:58;29.97;;;20.17;;
13588;SDS011;6865;52.552;13.434;2022-10-31T10:20:01;35.23;;;20.47;;
13588;SDS011;6865;52.552;13.434;2022-10-31T10:22:43;32.47;;;19.73;;
13588;SDS011;6865;52.552;13.434;2022-10-31T10:25:22;28.02;;;20.00;;
13588;SDS011;6865;52.552;13.434;2022-10-31T10:33:20;31.70;;;20.90;;
13588;SDS011;6865;52.552;13.434;2022-10-31T10:35:53;31.67;;;22.20;;
13588;SDS011;6865;52.552;13.434;2022-10-31T10:38:28;31.47;;;20.13;;
13588;SDS011;6865;52.552;13.434;2022-10-31T10:41:00;29.17;;;19.83;;
13588;SDS011;6865;52.552;13.434;2022-10-31T10:43:43;34.43;;;20.73;;
13588;SDS011;6865;52.552;13.434;2022-10-31T10:51:58;28.45;;;18.83;;
13588;SDS011;6865;52.552;13.434;2022-10-31T11:00:22;30.63;;;19.58;;
13588;SDS011;6865;52.552;13.434;2022-10-31T11:02:51;35.38;;;21.10;;
13588;SDS011;6865;52.552;13.434;2022-10-31T11:05:35;32.78;;;19.83;;
13588;SDS011;6865;52.552;13.434;2022-10-31T11:08:08;35.05;;;20.95;;
13588;SDS011;6865;52.552;13.434;2022-10-31T11:10:35;28.20;;;19.27;;
13588;SDS011;6865;52.552;13.434;2022-10-31T11:15:51;39.97;;;20.55;;
13588;SDS011;6865;52.552;13.434;2022-10-31T11:18:39;31.80;;;19.92;;
13588;SDS011;6865;52.552;13.434;2022-10-31T11:21:19;35.42;;;21.15;;
13588;SDS011;6865;52.552;13.434;2022-10-31T11:24:04;37.17;;;22.02;;
13588;SDS011;6865;52.552;13.434;2022-10-31T11:26:41;36.17;;;20.27;;
13588;SDS011;6865;52.552;13.434;2022-10-31T11:29:13;33.67;;;21.50;;
13588;SDS011;6865;52.552;13.434;2022-10-31T11:31:53;36.50;;;22.15;;
13588;SDS011;6865;52.552;13.434;2022-10-31T11:34:35;35.90;;;20.88;;
13588;SDS011;6865;52.552;13.434;2022-10-31T11:37:15;29.90;;;19.95;;
13588;SDS011;6865;52.552;13.434;2022-10-31T11:39:45;30.63;;;22.27;;
13588;SDS011;6865;52.552;13.434;2022-10-31T11:42:29;34.55;;;21.75;;
13588;SDS011;6865;52.552;13.434;2022-10-31T11:45:16;30.50;;;20.48;;
13588;SDS011;6865;52.552;13.434;2022-10-31T11:47:50;29.10;;;20.25;;
13588;SDS011;6865;52.552;13.434;2022-10-31T11:50:27;31.17;;;19.77;;
13588;SDS011;6865;52.552;13.434;2022-10-31T11:52:58;37.45;;;21.75;;
13588;SDS011;6865;52.552;13.434;2022-10-31T11:55:37;37.45;;;21.17;;
13588;SDS011;6865;52.552;13.434;2022-10-31T11:58:19;33.80;;;21.10;;
13588;SDS011;6865;52.552;13.434;2022-10-31T12:00:52;35.63;;;21.77;;
13588;SDS011;6865;52.552;13.434;2022-10-31T12:03:37;35.50;;;20.60;;
13588;SDS011;6865;52.552;13.434;2022-10-31T12:06:28;31.92;;;21.05;;
13588;SDS011;6865;52.552;13.434;2022-10-31T12:08:59;34.97;;;21.25;;
13588;SDS011;6865;52.552;13.434;2022-10-31T12:17:00;34.58;;;22.08;;
13588;SDS011;6865;52.552;13.434;2022-10-31T12:19:49;33.75;;;21.63;;
13588;SDS011;6865;52.552;13.434;2022-10-31T12:25:32;29.92;;;19.75;;
13588;SDS011;6865;52.552;13.434;2022-10-31T12:28:54;33.45;;;21.42;;
13588;SDS011;6865;52.552;13.434;2022-10-31T12:31:27;29.20;;;20.75;;
13588;SDS011;6865;52.552;13.434;2022-10-31T12:40:07;36.85;;;22.55;;
13588;SDS011;6865;52.552;13.434;2022-10-31T12:43:07;33.95;;;22.33;;
13588;SDS011;6865;52.552;13.434;2022-10-31T12:45:56;32.55;;;21.13;;
13588;SDS011;6865;52.552;13.434;2022-10-31T12:48:38;28.08;;;22.02;;
13588;SDS011;6865;52.552;13.434;2022-10-31T12:54:12;32.55;;;21.95;;
13588;SDS011;6865;52.552;13.434;2022-10-31T12:57:07;32.13;;;20.85;;
13588;SDS011;6865;52.552;13.434;2022-10-31T12:59:49;30.70;;;21.58;;
13588;SDS011;6865;52.552;13.434;2022-10-31T13:02:30;28.77;;;19.75;;
13588;SDS011;6865;52.552;13.434;2022-10-31T13:05:10;34.95;;;22.33;;
13588;SDS011;6865;52.552;13.434;2022-10-31T13:08:06;34.42;;;20.85;;
13588;SDS011;6865;52.552;13.434;2022-10-31T13:10:36;35.50;;;21.70;;
13588;SDS011;6865;52.552;13.434;2022-10-31T13:13:17;33.60;;;21.05;;
13588;SDS011;6865;52.552;13.434;2022-10-31T13:15:51;33.70;;;21.85;;
13588;SDS011;6865;52.552;13.434;2022-10-31T13:18:30;27.95;;;19.95;;
13588;SDS011;6865;52.552;13.434;2022-10-31T13:21:03;39.95;;;22.75;;
13588;SDS011;6865;52.552;13.434;2022-10-31T13:23:36;33.75;;;21.67;;
13588;SDS011;6865;52.552;13.434;2022-10-31T13:26:37;30.65;;;20.40;;
13588;SDS011;6865;52.552;13.434;2022-10-31T13:29:13;33.67;;;21.30;;
13588;SDS011;6865;52.552;13.434;2022-10-31T13:31:54;34.10;;;21.00;;
13588;SDS011;6865;52.552;13.434;2022-10-31T13:34:32;30.55;;;21.40;;
13588;SDS011;6865;52.552;13.434;2022-10-31T13:40:00;36.40;;;22.20;;
13588;SDS011;6865;52.552;13.434;2022-10-31T13:45:49;30.65;;;21.67;;
13588;SDS011;6865;52.552;13.434;2022-10-31T13:50:56;34.50;;;26.40;;
13588;SDS011;6865;52.552;13.434;2022-10-31T13:53:40;30.92;;;21.90;;
13588;SDS011;6865;52.552;13.434;2022-10-31T13:56:18;30.50;;;20.52;;
13588;SDS011;6865;52.552;13.434;2022-10-31T14:01:36;29.38;;;19.67;;
13588;SDS011;6865;52.552;13.434;2022-10-31T14:04:15;35.35;;;21.50;;
13588;SDS011;6865;52.552;13.434;2022-10-31T14:07:07;33.78;;;22.38;;
13588;SDS011;6865;52.552;13.434;2022-10-31T14:09:53;31.52;;;20.30;;
13588;SDS011;6865;52.552;13.434;2022-10-31T14:12:40;30.40;;;20.33;;
13588;SDS011;6865;52.552;13.434;2022-10-31T14:17:44;32.72;;;20.92;;
13588;SDS011;6865;52.552;13.434;2022-10-31T14:22:41;30.98;;;20.17;;
13588;SDS011;6865;52.552;13.434;2022-10-31T14:27:51;31.33;;;22.17;;
13588;SDS011;6865;52.552;13.434;2022-10-31T14:30:19;35.20;;;23.48;;
13588;SDS011;6865;52.552;13.434;2022-10-31T14:32:52;37.42;;;25.15;;
13588;SDS011;6865;52.552;13.434;2022-10-31T14:35:29;40.63;;;26.77;;
13588;SDS011;6865;52.552;13.434;2022-10-31T14:38:18;37.90;;;25.92;;
13588;SDS011;6865;52.552;13.434;2022-10-31T14:41:25;40.75;;;28.13;;
13588;SDS011;6865;52.552;13.434;2022-10-31T14:46:57;40.28;;;27.55;;
13588;SDS011;6865;52.552;13.434;2022-10-31T14:49:43;38.10;;;25.90;;
13588;SDS011;6865;52.552;13.434;2022-10-31T14:52:36;40.92;;;27.13;;
13588;SDS011;6865;52.552;13.434;2022-10-31T14:55:05;44.00;;;29.80;;
13588;SDS011;6865;52.552;13.434;2022-10-31T14:57:36;45.85;;;29.45;;
13588;SDS011;6865;52.552;13.434;2022-10-31T15:00:05;47.05;;;29.08;;
13588;SDS011;6865;52.552;13.434;2022-10-31T15:02:40;45.75;;;29.63;;
13588;SDS011;6865;52.552;13.434;2022-10-31T15:05:29;43.95;;;28.80;;
13588;SDS011;6865;52.552;13.434;2022-10-31T15:07:57;44.65;;;28.25;;
13588;SDS011;6865;52.552;13.434;2022-10-31T15:10:26;40.63;;;28.30;;
13588;SDS011;6865;52.552;13.434;2022-10-31T15:13:08;47.92;;;30.55;;
13588;SDS011;6865;52.552;13.434;2022-10-31T15:15:36;43.88;;;28.83;;
13588;SDS011;6865;52.552;13.434;2022-10-31T15:18:04;45.00;;;30.90;;
13588;SDS011;6865;52.552;13.434;2022-10-31T15:20:33;44.15;;;30.67;;
13588;SDS011;6865;52.552;13.434;2022-10-31T15:23:24;46.63;;;31.38;;
13588;SDS011;6865;52.552;13.434;2022-10-31T15:26:27;45.22;;;30.13;;
13588;SDS011;6865;52.552;13.434;2022-10-31T15:28:57;45.97;;;30.73;;
13588;SDS011;6865;52.552;13.434;2022-10-31T15:31:31;41.03;;;30.10;;
13588;SDS011;6865;52.552;13.434;2022-10-31T15:34:00;49.33;;;31.25;;
13588;SDS011;6865;52.552;13.434;2022-10-31T15:36:41;43.17;;;29.35;;
13588;SDS011;6865;52.552;13.434;2022-10-31T15:39:10;44.13;;;31.10;;
13588;SDS011;6865;52.552;13.434;2022-10-31T15:41:41;47.63;;;32.83;;
13588;SDS011;6865;52.552;13.434;2022-10-31T15:44:26;46.03;;;31.50;;
13588;SDS011;6865;52.552;13.434;2022-10-31T15:47:05;49.40;;;33.83;;
13588;SDS011;6865;52.552;13.434;2022-10-31T15:49:49;54.30;;;33.67;;
13588;SDS011;6865;52.552;13.434;2022-10-31T15:52:26;55.83;;;34.50;;
13588;SDS011;6865;52.552;13.434;2022-10-31T15:54:54;56.63;;;36.23;;
13588;SDS011;6865;52.552;13.434;2022-10-31T15:57:26;58.60;;;37.50;;
13588;SDS011;6865;52.552;13.434;2022-10-31T15:59:54;53.83;;;36.20;;
13588;SDS011;6865;52.552;13.434;2022-10-31T16:02:21;67.03;;;39.53;;
13588;SDS011;6865;52.552;13.434;2022-10-31T16:04:57;61.40;;;38.17;;
13588;SDS011;6865;52.552;13.434;2022-10-31T16:07:27;62.43;;;38.87;;
13588;SDS011;6865;52.552;13.434;2022-10-31T16:10:01;66.17;;;41.00;;
13588;SDS011;6865;52.552;13.434;2022-10-31T16:12:42;64.30;;;39.93;;
13588;SDS011;6865;52.552;13.434;2022-10-31T16:15:14;63.13;;;40.03;;